createdAt,value
2022-07-29T00:00:25.317Z,1.00
2022-07-29T00:02:54.095Z,1.00
2022-07-29T00:05:22.716Z,1.00
2022-07-29T00:07:51.416Z,1.00
2022-07-29T00:10:19.967Z,1.00
2022-07-29T00:12:48.508Z,1.00
2022-07-29T00:15:17.031Z,1.00
2022-07-29T00:17:45.528Z,1.00
2022-07-29T00:20:13.899Z,1.00
2022-07-29T00:22:42.387Z,1.00
2022-07-29T00:25:11.226Z,1.00
2022-07-29T00:27:39.833Z,1.00
2022-07-29T00:30:09.331Z,1.00
2022-07-29T00:32:38.134Z,1.00
2022-07-29T00:35:25.780Z,1.00
2022-07-29T00:37:54.408Z,1.00
2022-07-29T00:40:23.639Z,1.00
2022-07-29T00:42:54.062Z,1.00
2022-07-29T00:45:23.887Z,1.00
2022-07-29T00:47:52.341Z,1.00
2022-07-29T00:50:21.036Z,1.00
2022-07-29T00:52:49.612Z,1.00
2022-07-29T00:55:18.420Z,1.00
2022-07-29T00:57:47.794Z,1.00
2022-07-29T01:00:23.805Z,1.00
2022-07-29T01:02:52.868Z,1.00
2022-07-29T01:05:25.159Z,1.00
2022-07-29T01:08:15.951Z,1.00
2022-07-29T01:10:45.285Z,1.00
2022-07-29T01:13:15.533Z,1.00
2022-07-29T01:15:51.575Z,1.00
2022-07-29T01:18:43.360Z,1.00
2022-07-29T01:21:42.650Z,1.00
2022-07-29T01:24:32.152Z,1.00
2022-07-29T01:27:33.219Z,1.00
2022-07-29T01:30:05.274Z,1.00
2022-07-29T01:32:39.968Z,1.00
2022-07-29T01:35:15.987Z,1.00
2022-07-29T01:38:05.903Z,1.00
2022-07-29T01:40:55.020Z,1.00
2022-07-29T01:43:33.246Z,1.00
2022-07-29T01:46:09.428Z,1.00
2022-07-29T01:48:44.334Z,1.00
2022-07-29T01:51:23.632Z,1.00
2022-07-29T01:54:13.872Z,1.00
2022-07-29T01:56:44.391Z,1.00
2022-07-29T01:59:13.614Z,1.00
2022-07-29T02:01:44.308Z,1.00
2022-07-29T02:04:28.929Z,1.00
2022-07-29T02:07:05.715Z,1.00
2022-07-29T02:09:37.806Z,1.00
2022-07-29T02:12:08.262Z,1.00
2022-07-29T02:14:41.610Z,1.00
2022-07-29T02:17:12.406Z,1.00
2022-07-29T02:19:43.116Z,1.00
2022-07-29T02:22:13.727Z,1.00
2022-07-29T02:24:43.589Z,1.00
2022-07-29T02:27:13.184Z,1.00
2022-07-29T02:29:42.662Z,1.00
2022-07-29T02:32:14.625Z,1.00
2022-07-29T02:34:44.974Z,1.00
2022-07-29T02:37:14.643Z,1.00
2022-07-29T02:39:45.717Z,1.00
2022-07-29T02:42:17.772Z,1.00
2022-07-29T02:44:46.705Z,1.00
2022-07-29T02:47:43.556Z,1.00
2022-07-29T02:50:40.441Z,1.00
2022-07-29T02:53:20.699Z,1.00
2022-07-29T02:55:59.607Z,1.00
2022-07-29T02:58:35.444Z,1.00
2022-07-29T03:01:21.420Z,1.00
2022-07-29T03:03:53.683Z,1.00
2022-07-29T03:06:31.142Z,1.00
2022-07-29T03:09:13.369Z,1.00
2022-07-29T03:11:50.043Z,1.00
2022-07-29T03:14:21.556Z,1.00
2022-07-29T03:16:52.342Z,1.00
2022-07-29T03:19:22.031Z,1.00
2022-07-29T03:21:50.816Z,1.00
2022-07-29T03:24:30.239Z,1.00
2022-07-29T03:26:59.631Z,1.00
2022-07-29T03:29:33.970Z,1.00
2022-07-29T03:32:08.193Z,1.00
2022-07-29T03:34:39.224Z,1.00
2022-07-29T03:37:08.534Z,1.00
2022-07-29T03:39:43.452Z,1.00
2022-07-29T03:42:17.056Z,1.00
2022-07-29T03:44:49.417Z,1.00
2022-07-29T03:47:43.449Z,1.00
2022-07-29T03:50:16.552Z,1.00
2022-07-29T03:52:45.336Z,1.00
2022-07-29T03:55:14.865Z,1.00
2022-07-29T03:57:44.348Z,1.00
2022-07-29T04:00:13.870Z,1.00
2022-07-29T04:02:42.496Z,1.00
2022-07-29T04:05:20.715Z,1.00
2022-07-29T04:07:50.301Z,1.00
2022-07-29T04:10:30.176Z,1.00
2022-07-29T04:13:01.426Z,1.00
2022-07-29T04:15:30.892Z,1.00
2022-07-29T04:18:01.155Z,1.00
2022-07-29T04:20:29.676Z,1.00
2022-07-29T04:22:58.072Z,1.00
2022-07-29T04:25:26.483Z,1.00
2022-07-29T04:28:04.744Z,1.00
2022-07-29T04:30:34.524Z,1.00
2022-07-29T04:33:05.165Z,1.00
2022-07-29T04:35:38.156Z,1.00
2022-07-29T04:38:15.885Z,1.00
2022-07-29T04:40:46.829Z,1.00
2022-07-29T04:43:16.838Z,1.00
2022-07-29T04:45:51.214Z,1.00
2022-07-29T04:48:19.648Z,1.00
2022-07-29T04:50:48.933Z,1.00
2022-07-29T04:53:17.364Z,1.00
2022-07-29T04:55:46.646Z,1.00
2022-07-29T04:58:15.050Z,1.00
2022-07-29T05:00:43.451Z,1.00
2022-07-29T05:03:11.936Z,1.00
2022-07-29T05:05:40.382Z,1.00
2022-07-29T05:08:08.831Z,1.00
2022-07-29T05:10:39.818Z,1.00
2022-07-29T05:13:09.381Z,1.00
2022-07-29T05:15:38.402Z,1.00
2022-07-29T05:18:07.227Z,1.00
2022-07-29T05:20:36.424Z,1.00
2022-07-29T05:23:05.642Z,1.00
2022-07-29T05:25:43.109Z,1.00
2022-07-29T05:28:13.516Z,1.00
2022-07-29T05:30:42.034Z,1.00
2022-07-29T05:33:35.463Z,1.00
2022-07-29T05:36:00.788Z,1.00
2022-07-29T05:38:29.774Z,1.00
2022-07-29T05:41:00.515Z,1.00
2022-07-29T05:43:32.637Z,1.00
2022-07-29T05:46:01.393Z,1.00
2022-07-29T05:48:30.100Z,1.00
2022-07-29T05:50:58.448Z,1.00
2022-07-29T05:53:26.813Z,1.00
2022-07-29T05:55:55.176Z,1.00
2022-07-29T05:58:23.555Z,1.00
2022-07-29T06:00:52.187Z,1.00
2022-07-29T06:03:20.550Z,1.00
2022-07-29T06:05:48.874Z,1.00
2022-07-29T06:08:17.244Z,1.00
2022-07-29T06:10:47.275Z,1.00
2022-07-29T06:13:17.670Z,1.00
2022-07-29T06:15:46.081Z,1.00
2022-07-29T06:18:15.248Z,1.00
2022-07-29T06:20:43.670Z,1.00
2022-07-29T06:23:12.071Z,1.00
2022-07-29T06:25:42.594Z,1.00
2022-07-29T06:28:11.012Z,1.00
2022-07-29T06:30:39.645Z,1.00
2022-07-29T06:33:08.415Z,1.00
2022-07-29T06:35:42.340Z,1.00
2022-07-29T06:38:31.816Z,1.00
2022-07-29T06:41:07.490Z,1.00
2022-07-29T06:43:50.240Z,1.00
2022-07-29T06:46:21.437Z,1.00
2022-07-29T06:48:50.190Z,1.00
2022-07-29T06:51:22.412Z,1.00
2022-07-29T06:53:59.544Z,1.00
2022-07-29T06:56:40.270Z,1.00
2022-07-29T06:59:10.340Z,1.00
2022-07-29T07:01:43.970Z,1.00
2022-07-29T07:04:13.658Z,1.00
2022-07-29T07:06:42.693Z,1.00
2022-07-29T07:09:11.091Z,1.00
2022-07-29T07:11:39.480Z,1.00
2022-07-29T07:14:07.883Z,1.00
2022-07-29T07:16:36.341Z,1.00
2022-07-29T07:19:04.765Z,1.10
2022-07-29T07:21:34.501Z,4.00
2022-07-29T07:24:04.477Z,1.00
2022-07-29T07:26:32.980Z,4.10
2022-07-29T07:29:02.201Z,12.70
2022-07-29T07:31:30.718Z,22.20
2022-07-29T07:33:59.144Z,17.90
2022-07-29T07:36:27.553Z,15.90
2022-07-29T07:38:55.964Z,11.90
2022-07-29T07:41:24.688Z,10.70
2022-07-29T07:43:53.075Z,10.90
2022-07-29T07:46:21.575Z,9.00
2022-07-29T07:48:50.014Z,18.30
2022-07-29T07:51:18.451Z,27.50
2022-07-29T07:53:46.856Z,21.40
2022-07-29T07:56:15.211Z,20.60
2022-07-29T07:58:43.639Z,24.80
2022-07-29T08:01:12.493Z,21.20
2022-07-29T08:03:40.967Z,18.10
2022-07-29T08:06:09.466Z,26.00
2022-07-29T08:08:37.865Z,35.60
2022-07-29T08:11:09.659Z,31.10
2022-07-29T08:13:39.541Z,26.40
2022-07-29T08:16:16.829Z,28.50
2022-07-29T08:18:47.257Z,23.60
2022-07-29T08:21:17.275Z,23.50
2022-07-29T08:23:51.677Z,27.70
2022-07-29T08:26:26.348Z,26.90
2022-07-29T08:28:54.704Z,18.20
2022-07-29T08:31:23.164Z,18.00
2022-07-29T08:33:51.571Z,14.20
2022-07-29T08:36:19.988Z,16.50
2022-07-29T08:38:48.376Z,18.80
2022-07-29T08:41:16.905Z,22.40
2022-07-29T08:43:45.296Z,20.20
2022-07-29T08:46:13.775Z,14.20
2022-07-29T08:48:43.803Z,11.40
2022-07-29T08:51:16.844Z,23.00
2022-07-29T08:53:47.387Z,26.40
2022-07-29T08:56:19.100Z,31.80
2022-07-29T08:58:51.827Z,33.30
2022-07-29T09:01:34.960Z,30.00
2022-07-29T09:04:08.012Z,29.40
2022-07-29T09:06:41.141Z,25.10
2022-07-29T09:09:10.425Z,34.40
2022-07-29T09:11:39.447Z,37.40
2022-07-29T09:14:07.972Z,28.10
2022-07-29T09:16:56.624Z,25.90
2022-07-29T09:19:29.290Z,29.40
2022-07-29T09:22:03.575Z,34.50
2022-07-29T09:24:49.329Z,36.90
2022-07-29T09:27:24.132Z,51.50
2022-07-29T09:30:04.431Z,46.50
2022-07-29T09:32:33.430Z,41.70
2022-07-29T09:35:20.085Z,48.10
2022-07-29T09:37:49.579Z,54.50
2022-07-29T09:40:21.356Z,52.10
2022-07-29T09:42:50.802Z,43.40
2022-07-29T09:45:50.300Z,42.70
2022-07-29T09:48:26.859Z,46.20
2022-07-29T09:50:56.741Z,35.60
2022-07-29T09:53:38.744Z,41.00
2022-07-29T09:56:07.959Z,43.20
2022-07-29T09:58:36.454Z,39.70
2022-07-29T10:01:05.798Z,42.80
2022-07-29T10:03:34.323Z,46.20
2022-07-29T10:06:15.360Z,34.40
2022-07-29T10:08:44.347Z,26.30
2022-07-29T10:11:14.226Z,31.40
2022-07-29T10:13:44.475Z,36.10
2022-07-29T10:16:14.402Z,27.00
2022-07-29T10:18:45.372Z,29.20
2022-07-29T10:21:35.188Z,31.70
2022-07-29T10:24:04.223Z,29.50
2022-07-29T10:26:33.281Z,24.70
2022-07-29T10:29:02.395Z,15.30
2022-07-29T10:31:57.454Z,20.10
2022-07-29T10:34:33.543Z,29.20
2022-07-29T10:37:48.639Z,26.60
2022-07-29T10:41:01.410Z,27.90
2022-07-29T10:43:37.974Z,27.90
2022-07-29T10:46:07.598Z,27.30
2022-07-29T10:48:36.935Z,20.20
2022-07-29T10:51:10.067Z,24.10
2022-07-29T10:54:01.548Z,20.40
2022-07-29T10:56:38.035Z,27.30
2022-07-29T10:59:22.822Z,36.60
2022-07-29T11:01:53.557Z,37.20
2022-07-29T11:04:45.906Z,37.90
2022-07-29T11:07:18.031Z,41.10
2022-07-29T11:09:47.347Z,51.80
2022-07-29T11:12:40.032Z,55.70
2022-07-29T11:15:20.631Z,60.40
2022-07-29T11:17:59.386Z,60.50
2022-07-29T11:20:46.443Z,66.10
2022-07-29T11:23:37.627Z,67.00
2022-07-29T11:26:15.411Z,76.80
2022-07-29T11:28:53.307Z,82.20
2022-07-29T11:31:32.774Z,80.80
2022-07-29T11:34:34.851Z,87.20
2022-07-29T11:37:15.241Z,93.90
2022-07-29T11:39:46.293Z,94.10
2022-07-29T11:45:43.639Z,95.30
2022-07-29T11:48:29.302Z,97.00
2022-07-29T11:51:03.353Z,99.90
2022-07-29T11:53:32.581Z,98.90
2022-07-29T11:56:03.456Z,99.50
2022-07-29T11:58:33.417Z,98.80
2022-07-29T12:01:04.791Z,99.90
2022-07-29T12:03:35.840Z,99.90
2022-07-29T12:06:17.606Z,99.90
2022-07-29T12:07:03.764Z,93.60
2022-07-29T12:08:47.354Z,99.90
2022-07-29T12:11:21.654Z,99.90
2022-07-29T12:13:51.821Z,99.90
2022-07-29T12:16:29.487Z,99.90
2022-07-29T12:19:02.974Z,99.90
2022-07-29T12:21:56.755Z,99.90
2022-07-29T12:24:26.719Z,99.90
2022-07-29T12:27:00.305Z,99.90
2022-07-29T12:29:34.956Z,99.90
2022-07-29T12:32:15.056Z,99.90
2022-07-29T12:34:48.726Z,99.90
2022-07-29T12:37:17.305Z,99.90
2022-07-29T12:39:45.825Z,99.90
2022-07-29T12:42:18.869Z,99.90
2022-07-29T12:44:51.810Z,99.90
2022-07-29T12:47:21.832Z,99.90
2022-07-29T12:49:51.800Z,99.90
2022-07-29T12:52:34.026Z,99.90
2022-07-29T12:55:03.211Z,99.90
2022-07-29T12:57:31.680Z,99.90
2022-07-29T13:00:09.683Z,99.90
2022-07-29T13:02:42.648Z,99.90
2022-07-29T13:05:14.328Z,99.90
2022-07-29T13:07:55.070Z,99.90
2022-07-29T13:10:26.740Z,99.90
2022-07-29T13:13:11.115Z,99.90
2022-07-29T13:15:42.629Z,99.90
2022-07-29T13:18:49.511Z,99.90
2022-07-29T13:21:18.735Z,99.90
2022-07-29T13:23:47.337Z,99.90
2022-07-29T13:26:17.987Z,99.90
2022-07-29T13:28:46.368Z,99.90
2022-07-29T13:31:14.858Z,99.90
2022-07-29T13:33:45.703Z,99.90
2022-07-29T13:36:14.143Z,99.90
2022-07-29T13:38:42.500Z,99.90
2022-07-29T13:41:11.035Z,99.90
2022-07-29T13:43:39.466Z,99.90
2022-07-29T13:46:07.890Z,99.90
2022-07-29T13:48:36.490Z,98.60
2022-07-29T13:51:04.923Z,95.70
2022-07-29T13:53:34.485Z,88.20
2022-07-29T13:56:02.959Z,92.10
2022-07-29T13:58:31.358Z,92.20
2022-07-29T14:00:59.874Z,82.70
2022-07-29T14:03:28.347Z,78.80
2022-07-29T14:05:58.006Z,80.90
2022-07-29T14:08:29.873Z,80.60
2022-07-29T14:10:58.244Z,71.00
2022-07-29T14:13:26.741Z,57.60
2022-07-29T14:15:55.350Z,54.00
2022-07-29T14:18:23.690Z,47.30
2022-07-29T14:20:52.872Z,49.40
2022-07-29T14:23:21.360Z,37.10
2022-07-29T14:25:50.327Z,32.30
2022-07-29T14:28:18.888Z,33.80
2022-07-29T14:30:47.551Z,28.40
2022-07-29T14:33:16.034Z,14.60
2022-07-29T14:35:44.483Z,19.40
2022-07-29T14:38:12.988Z,20.40
2022-07-29T14:40:41.486Z,19.00
2022-07-29T14:43:09.945Z,16.90
2022-07-29T14:45:38.332Z,20.30
2022-07-29T14:48:07.267Z,9.40
2022-07-29T14:50:35.724Z,8.70
2022-07-29T14:53:04.458Z,1.00
2022-07-29T14:55:32.882Z,1.00
2022-07-29T14:58:09.914Z,1.00
2022-07-29T15:00:40.567Z,1.00
2022-07-29T15:03:11.681Z,1.00
2022-07-29T15:05:40.735Z,1.00
2022-07-29T15:08:09.955Z,1.00
2022-07-29T15:10:38.380Z,1.00
2022-07-29T15:13:07.031Z,1.00
2022-07-29T15:15:35.586Z,1.00
2022-07-29T15:18:04.066Z,1.00
2022-07-29T15:20:32.647Z,1.00
2022-07-29T15:23:00.980Z,1.00
2022-07-29T15:25:29.367Z,1.00
2022-07-29T15:28:01.509Z,1.00
2022-07-29T15:30:34.044Z,1.00
2022-07-29T15:33:04.969Z,1.00
2022-07-29T15:35:40.246Z,1.00
2022-07-29T15:38:09.414Z,1.00
2022-07-29T15:40:42.004Z,1.00
2022-07-29T15:43:10.415Z,1.00
2022-07-29T15:45:40.971Z,1.00
2022-07-29T15:48:14.623Z,1.00
2022-07-29T15:50:43.638Z,1.00
2022-07-29T15:53:15.705Z,1.00
2022-07-29T15:55:44.501Z,1.00
2022-07-29T15:58:13.098Z,1.00
2022-07-29T16:00:41.593Z,1.00
2022-07-29T16:03:10.040Z,1.00
2022-07-29T16:05:38.701Z,1.00
2022-07-29T16:08:07.436Z,1.00
2022-07-29T16:10:36.147Z,1.00
2022-07-29T16:13:04.583Z,1.00
2022-07-29T16:15:32.968Z,1.00
2022-07-29T16:18:01.686Z,1.00
2022-07-29T16:20:30.054Z,1.00
2022-07-29T16:22:58.543Z,1.00
2022-07-29T16:25:50.285Z,1.00
2022-07-29T16:28:15.402Z,1.00
2022-07-29T16:30:43.806Z,1.00
2022-07-29T16:33:12.250Z,1.00
2022-07-29T16:35:41.148Z,1.00
2022-07-29T16:38:09.542Z,1.00
2022-07-29T16:40:38.559Z,1.00
2022-07-29T16:43:06.937Z,1.00
2022-07-29T16:45:45.343Z,1.00
2022-07-29T16:48:18.781Z,1.00
2022-07-29T16:50:47.587Z,1.00
2022-07-29T16:53:16.122Z,1.00
2022-07-29T16:55:44.758Z,1.00
2022-07-29T16:58:13.582Z,1.00
2022-07-29T17:00:42.135Z,1.00
2022-07-29T17:03:10.589Z,1.00
2022-07-29T17:05:53.699Z,1.00
2022-07-29T17:08:23.376Z,1.00
2022-07-29T17:10:52.004Z,1.00
2022-07-29T17:13:20.927Z,1.00
2022-07-29T17:15:49.362Z,1.00
2022-07-29T17:18:17.773Z,1.00
2022-07-29T17:20:46.387Z,1.00
2022-07-29T17:23:14.964Z,1.00
2022-07-29T17:25:43.301Z,1.00
2022-07-29T17:28:11.726Z,1.00
2022-07-29T17:30:40.188Z,1.00
2022-07-29T17:33:08.640Z,1.00
2022-07-29T17:35:55.536Z,1.00
2022-07-29T17:38:23.914Z,1.00
2022-07-29T17:40:52.307Z,1.00
2022-07-29T17:43:20.726Z,1.00
2022-07-29T17:45:50.768Z,1.00
2022-07-29T17:48:20.570Z,1.00
2022-07-29T17:50:49.886Z,1.00
2022-07-29T17:53:18.726Z,1.00
2022-07-29T17:55:49.340Z,1.00
2022-07-29T17:58:17.954Z,1.00
2022-07-29T18:00:46.419Z,1.00
2022-07-29T18:03:15.277Z,1.00
2022-07-29T18:05:43.963Z,1.00
2022-07-29T18:08:12.913Z,1.00
2022-07-29T18:10:42.161Z,1.00
2022-07-29T18:13:12.351Z,1.00
2022-07-29T18:15:41.889Z,1.00
2022-07-29T18:18:10.519Z,1.00
2022-07-29T18:20:39.248Z,1.00
2022-07-29T18:23:07.780Z,1.00
2022-07-29T18:25:36.374Z,1.00
2022-07-29T18:28:05.419Z,1.00
2022-07-29T18:30:40.555Z,1.00
2022-07-29T18:33:21.410Z,1.00
2022-07-29T18:35:51.571Z,1.00
2022-07-29T18:38:20.486Z,1.00
2022-07-29T18:40:49.295Z,1.00
2022-07-29T18:43:17.623Z,1.00
2022-07-29T18:45:46.097Z,1.00
2022-07-29T18:48:14.489Z,1.00
2022-07-29T18:50:43.555Z,1.00
2022-07-29T18:53:12.002Z,1.00
2022-07-29T18:55:40.441Z,1.00
2022-07-29T18:58:08.919Z,1.00
2022-07-29T19:00:37.330Z,1.00
2022-07-29T19:03:05.875Z,1.00
2022-07-29T19:05:34.439Z,1.00
2022-07-29T19:08:02.844Z,1.00
2022-07-29T19:10:31.707Z,1.00
2022-07-29T19:13:00.137Z,1.00
2022-07-29T19:15:28.642Z,1.00
2022-07-29T19:18:00.947Z,1.00
2022-07-29T19:20:30.308Z,1.00
2022-07-29T19:22:59.308Z,1.00
2022-07-29T19:25:27.789Z,1.00
2022-07-29T19:27:56.307Z,1.00
2022-07-29T19:30:24.707Z,1.00
2022-07-29T19:32:53.221Z,1.00
2022-07-29T19:35:33.829Z,1.00
2022-07-29T19:38:03.298Z,1.00
2022-07-29T19:40:32.406Z,1.00
2022-07-29T19:43:01.544Z,1.00
2022-07-29T19:45:31.128Z,1.00
2022-07-29T19:48:01.688Z,1.00
2022-07-29T19:50:31.033Z,1.00
2022-07-29T19:53:00.020Z,1.00
2022-07-29T19:55:28.970Z,1.00
2022-07-29T19:57:57.699Z,1.00
2022-07-29T20:00:26.723Z,1.00
2022-07-29T20:02:55.342Z,1.00
2022-07-29T20:05:28.062Z,1.00
2022-07-29T20:07:56.696Z,1.00
2022-07-29T20:10:25.339Z,1.00
2022-07-29T20:12:55.144Z,1.00
2022-07-29T20:15:24.657Z,1.00
2022-07-29T20:17:56.741Z,1.00
2022-07-29T20:20:26.113Z,1.00
2022-07-29T20:22:55.614Z,1.00
2022-07-29T20:25:24.978Z,1.00
2022-07-29T20:27:53.573Z,1.00
2022-07-29T20:30:23.258Z,1.00
2022-07-29T20:32:51.693Z,1.00
2022-07-29T20:35:20.350Z,1.00
2022-07-29T20:37:52.388Z,1.00
2022-07-29T20:40:26.614Z,1.00
2022-07-29T20:42:56.058Z,1.00
2022-07-29T20:45:25.608Z,1.00
2022-07-29T20:47:54.443Z,1.00
2022-07-29T20:50:24.372Z,1.00
2022-07-29T20:52:53.572Z,1.00
2022-07-29T20:55:22.445Z,1.00
2022-07-29T20:57:50.999Z,1.00
2022-07-29T21:00:19.641Z,1.00
2022-07-29T21:02:48.188Z,1.00
2022-07-29T21:05:16.815Z,1.00
2022-07-29T21:07:45.243Z,1.00
2022-07-29T21:10:14.947Z,1.00
2022-07-29T21:12:43.291Z,1.00
2022-07-29T21:15:14.204Z,1.00
2022-07-29T21:17:49.900Z,1.00
2022-07-29T21:20:20.466Z,1.00
2022-07-29T21:22:48.964Z,1.00
2022-07-29T21:25:17.350Z,1.00
2022-07-29T21:28:04.004Z,1.00
2022-07-29T21:30:32.485Z,1.00
2022-07-29T21:33:02.094Z,1.00
2022-07-29T21:36:01.499Z,1.00
2022-07-29T21:38:19.738Z,1.00
2022-07-29T21:40:50.321Z,1.00
2022-07-29T21:43:19.672Z,1.00
2022-07-29T21:45:53.966Z,1.00
2022-07-29T21:48:23.248Z,1.00
2022-07-29T21:50:52.454Z,1.00
2022-07-29T21:53:23.017Z,1.00
2022-07-29T21:55:55.458Z,1.00
2022-07-29T21:58:24.582Z,1.00
2022-07-29T22:00:53.606Z,1.00
2022-07-29T22:03:22.079Z,1.00
2022-07-29T22:05:50.483Z,1.00
2022-07-29T22:08:21.567Z,1.00
2022-07-29T22:10:49.943Z,1.00
2022-07-29T22:13:18.343Z,1.00
2022-07-29T22:15:47.260Z,1.00
2022-07-29T22:18:21.007Z,1.00
2022-07-29T22:20:51.091Z,1.00
2022-07-29T22:23:19.566Z,1.00
2022-07-29T22:25:48.042Z,1.00
2022-07-29T22:28:16.488Z,1.00
2022-07-29T22:30:44.884Z,1.00
2022-07-29T22:33:16.988Z,1.00
2022-07-29T22:35:48.607Z,1.00
2022-07-29T22:38:18.891Z,1.00
2022-07-29T22:40:50.637Z,1.00
2022-07-29T22:43:19.339Z,1.00
2022-07-29T22:45:47.893Z,1.00
2022-07-29T22:48:16.363Z,1.00
2022-07-29T22:50:44.784Z,1.00
2022-07-29T22:53:13.242Z,1.00
2022-07-29T22:55:41.739Z,1.00
2022-07-29T22:58:10.148Z,1.00
2022-07-29T23:00:38.586Z,1.00
2022-07-29T23:03:07.047Z,1.00
2022-07-29T23:05:35.446Z,1.00
2022-07-29T23:08:03.892Z,1.00
2022-07-29T23:10:32.415Z,1.00
2022-07-29T23:13:00.901Z,1.00
2022-07-29T23:15:29.575Z,1.00
2022-07-29T23:17:58.051Z,1.00
2022-07-29T23:20:26.510Z,1.00
2022-07-29T23:22:55.214Z,1.00
2022-07-29T23:25:23.654Z,1.00
2022-07-29T23:27:52.044Z,1.00
2022-07-29T23:30:20.442Z,1.00
2022-07-29T23:32:48.766Z,1.00
2022-07-29T23:35:17.177Z,1.00
2022-07-29T23:37:45.634Z,1.00
2022-07-29T23:40:14.998Z,1.00
2022-07-29T23:42:44.457Z,1.00
2022-07-29T23:45:14.750Z,1.00
2022-07-29T23:47:43.920Z,1.00
2022-07-29T23:50:13.376Z,1.00
2022-07-29T23:52:42.125Z,1.00
2022-07-29T23:55:37.406Z,1.00
2022-07-29T23:58:01.035Z,1.00
